Time;durP1;ratioP1;P1;durP2;ratioP2;P2;SDS_P1;SDS_P2;PMS_P1;PMS_P2;Temp;Humidity;BMP_temperature;BMP_pressure;BME280_temperature;BME280_humidity;BME280_pressure;Samples;Min_cycle;Max_cycle;Signal;HPM_P1;HPM_P2
2023/12/05 00:00:27;;;;;;;25.30;14.65;;;0.50;99.90;;;;;;4916636;29;20040;-65
2023/12/05 00:02:53;;;;;;;24.77;14.30;;;0.50;99.90;;;;;;4915290;29;20043;-65
2023/12/05 00:05:19;;;;;;;22.23;13.13;;;0.60;99.90;;;;;;4916487;29;20024;-65
2023/12/05 00:07:44;;;;;;;27.52;14.60;;;0.70;99.90;;;;;;4915528;29;20035;-65
2023/12/05 00:10:10;;;;;;;24.63;14.05;;;0.70;99.90;;;;;;4916558;29;20378;-65
2023/12/05 00:12:35;;;;;;;23.88;12.85;;;0.70;99.90;;;;;;4914830;29;20107;-65
2023/12/05 00:15:01;;;;;;;23.63;13.75;;;0.80;99.90;;;;;;4914707;29;20028;-65
2023/12/05 00:17:27;;;;;;;23.17;13.77;;;0.80;99.90;;;;;;4908327;29;20425;-65
2023/12/05 00:19:52;;;;;;;21.27;13.25;;;0.90;99.90;;;;;;4912821;29;20032;-65
2023/12/05 00:22:18;;;;;;;28.88;14.40;;;0.90;99.90;;;;;;4913192;29;20032;-65
2023/12/05 00:24:44;;;;;;;24.55;13.68;;;0.90;99.90;;;;;;4913178;29;20028;-65
2023/12/05 00:27:09;;;;;;;22.05;13.15;;;1.00;99.90;;;;;;4913775;29;20040;-65
2023/12/05 00:29:37;;;;;;;25.83;12.68;;;1.00;99.90;;;;;;4913702;29;20016;-65
2023/12/05 00:32:03;;;;;;;21.67;12.43;;;1.00;99.90;;;;;;4913440;29;20059;-65
2023/12/05 00:34:29;;;;;;;23.52;12.88;;;1.00;99.90;;;;;;4913613;29;20016;-65
2023/12/05 00:36:54;;;;;;;21.00;10.05;;;1.00;99.90;;;;;;4911747;29;20612;-65
2023/12/05 00:39:20;;;;;;;30.90;12.40;;;1.20;99.90;;;;;;4915093;29;20049;-65
2023/12/05 00:41:46;;;;;;;19.02;11.13;;;1.30;99.90;;;;;;4912395;29;20036;-65
2023/12/05 00:44:12;;;;;;;16.67;10.20;;;1.40;99.90;;;;;;4913954;29;20526;-65
2023/12/05 00:46:38;;;;;;;19.45;10.98;;;1.50;99.90;;;;;;4914264;29;20036;-65
2023/12/05 00:49:04;;;;;;;13.70;9.00;;;1.50;99.90;;;;;;4915990;29;20079;-65
2023/12/05 00:51:29;;;;;;;16.25;9.18;;;1.60;99.90;;;;;;4914846;29;20044;-65
2023/12/05 00:53:55;;;;;;;13.52;7.80;;;1.70;99.90;;;;;;4915223;29;20024;-65
2023/12/05 00:56:21;;;;;;;12.75;6.78;;;1.70;99.90;;;;;;4916195;29;20445;-65
2023/12/05 00:58:47;;;;;;;11.27;5.35;;;1.70;99.90;;;;;;4915391;29;20036;-65
2023/12/05 01:01:12;;;;;;;12.02;7.50;;;1.80;99.90;;;;;;4915925;29;20079;-65
2023/12/05 01:03:38;;;;;;;13.13;7.97;;;1.90;99.90;;;;;;4915248;29;20052;-65
2023/12/05 01:06:04;;;;;;;6.45;3.92;;;2.00;99.90;;;;;;4915742;29;20489;-65
2023/12/05 01:08:30;;;;;;;5.97;4.35;;;2.00;99.90;;;;;;4916048;29;20039;-65
2023/12/05 01:10:55;;;;;;;6.30;3.47;;;2.00;99.90;;;;;;4914227;29;20024;-65
2023/12/05 01:13:21;;;;;;;5.13;3.38;;;2.10;99.90;;;;;;4915843;29;20024;-65
2023/12/05 01:15:47;;;;;;;5.68;3.10;;;2.20;99.90;;;;;;4914996;29;20024;-65
2023/12/05 01:18:12;;;;;;;5.13;2.90;;;2.40;99.90;;;;;;4915411;29;20071;-65
2023/12/05 01:20:40;;;;;;;3.13;2.22;;;2.50;99.90;;;;;;4914658;29;20028;-65
2023/12/05 01:23:05;;;;;;;3.70;2.80;;;2.60;99.90;;;;;;4914895;29;20040;-65
2023/12/05 01:25:31;;;;;;;3.13;2.47;;;2.70;99.90;;;;;;4915419;29;20039;-64
2023/12/05 01:27:56;;;;;;;6.68;2.20;;;2.80;99.90;;;;;;4912875;29;20826;-65
2023/12/05 01:30:22;;;;;;;4.90;2.30;;;2.90;99.90;;;;;;4914552;29;20099;-64
2023/12/05 01:32:48;;;;;;;3.05;2.25;;;3.10;99.90;;;;;;4913396;29;20024;-65
2023/12/05 01:35:13;;;;;;;3.20;1.83;;;3.10;99.90;;;;;;4915268;29;20040;-65
2023/12/05 01:37:39;;;;;;;2.88;2.03;;;3.20;99.90;;;;;;4913129;29;20260;-65
2023/12/05 01:40:08;;;;;;;3.38;2.00;;;3.30;99.90;;;;;;4915065;29;20450;-65
2023/12/05 01:42:38;;;;;;;2.50;2.20;;;3.40;99.90;;;;;;4929265;29;20384;-65
2023/12/05 01:45:08;;;;;;;2.42;2.08;;;3.40;99.90;;;;;;4913756;29;20032;-65
2023/12/05 01:47:39;;;;;;;2.42;1.95;;;3.40;99.90;;;;;;4913878;29;20043;-65
2023/12/05 01:50:10;;;;;;;2.90;2.13;;;3.40;99.90;;;;;;4915197;29;20036;-65
2023/12/05 01:52:38;;;;;;;2.90;2.10;;;3.40;99.90;;;;;;4913904;29;20119;-65
2023/12/05 01:55:04;;;;;;;3.60;2.38;;;3.40;99.90;;;;;;4915036;29;20028;-65
2023/12/05 01:57:32;;;;;;;3.78;2.15;;;3.40;99.90;;;;;;4914056;29;20032;-65
2023/12/05 01:59:57;;;;;;;3.13;2.05;;;3.40;99.90;;;;;;4913784;29;20938;-64
2023/12/05 02:02:23;;;;;;;3.05;2.05;;;3.50;99.90;;;;;;4914095;29;20028;-65
2023/12/05 02:04:48;;;;;;;3.42;2.28;;;3.50;99.90;;;;;;4913909;29;20032;-65
2023/12/05 02:07:14;;;;;;;3.58;2.38;;;3.50;99.90;;;;;;4914108;29;20119;-65
2023/12/05 02:09:40;;;;;;;7.05;3.40;;;3.40;99.90;;;;;;4913607;29;20453;-65
2023/12/05 02:12:06;;;;;;;3.13;2.47;;;3.30;99.90;;;;;;4913858;29;20079;-65
2023/12/05 02:14:32;;;;;;;3.47;2.28;;;3.30;99.90;;;;;;4914221;29;20025;-64
2023/12/05 02:17:09;;;;;;;3.72;2.53;;;3.30;99.90;;;;;;4912714;29;20070;-65
2023/12/05 02:20:00;;;;;;;3.42;2.65;;;3.20;99.90;;;;;;4914120;29;20027;-65
2023/12/05 02:22:59;;;;;;;3.90;2.17;;;3.00;99.90;;;;;;4902944;29;20142;-65
2023/12/05 02:25:40;;;;;;;5.20;2.90;;;2.90;99.90;;;;;;4902052;29;20032;-64
2023/12/05 02:28:06;;;;;;;3.40;2.90;;;2.80;99.90;;;;;;4914181;29;20603;-64
2023/12/05 02:30:32;;;;;;;4.20;3.05;;;2.70;99.90;;;;;;4914289;29;20032;-65
2023/12/05 02:32:57;;;;;;;3.67;2.63;;;2.60;99.90;;;;;;4912940;29;21233;-64
2023/12/05 02:35:23;;;;;;;4.72;3.00;;;2.60;99.90;;;;;;4913919;29;20513;-64
2023/12/05 02:37:58;;;;;;;3.72;2.78;;;2.50;99.90;;;;;;4912131;29;20060;-65
2023/12/05 02:40:37;;;;;;;5.32;2.90;;;2.40;99.90;;;;;;4914330;29;20044;-65
2023/12/05 02:43:08;;;;;;;4.40;2.85;;;2.40;99.90;;;;;;4897277;29;20379;-65
2023/12/05 02:45:37;;;;;;;4.28;2.95;;;2.30;99.90;;;;;;4913772;29;20168;-65
2023/12/05 02:48:05;;;;;;;3.72;2.90;;;2.20;99.90;;;;;;4913711;29;20454;-65
2023/12/05 02:50:30;;;;;;;4.97;3.70;;;2.20;99.90;;;;;;4914361;29;20028;-64
2023/12/05 02:52:56;;;;;;;4.45;3.25;;;2.20;99.90;;;;;;4912215;29;20117;-65
2023/12/05 02:55:21;;;;;;;5.07;3.17;;;2.20;99.90;;;;;;4913748;29;20036;-65
2023/12/05 02:57:47;;;;;;;4.85;3.38;;;2.10;99.90;;;;;;4912129;29;20040;-65
2023/12/05 03:00:13;;;;;;;5.25;3.33;;;2.10;99.90;;;;;;4913270;29;20439;-65
2023/12/05 03:02:38;;;;;;;6.03;3.67;;;2.00;99.90;;;;;;4912174;29;20032;-65
2023/12/05 03:05:05;;;;;;;5.95;3.85;;;1.90;99.90;;;;;;4913471;29;20020;-65
2023/12/05 03:07:30;;;;;;;7.47;3.67;;;1.90;99.90;;;;;;4912648;29;20032;-65
2023/12/05 03:09:56;;;;;;;5.30;3.78;;;1.90;99.90;;;;;;4912532;29;20087;-64
2023/12/05 03:12:22;;;;;;;3.53;2.80;;;1.90;99.90;;;;;;4913513;29;20032;-65
2023/12/05 03:14:48;;;;;;;4.03;3.05;;;1.90;99.90;;;;;;4915768;29;20099;-64
2023/12/05 03:17:13;;;;;;;6.75;3.88;;;1.80;99.90;;;;;;4917166;29;20040;-65
2023/12/05 03:19:39;;;;;;;4.95;3.60;;;1.80;99.90;;;;;;4917211;29;20128;-65
2023/12/05 03:22:04;;;;;;;6.00;3.63;;;1.90;99.90;;;;;;4916878;29;20036;-65
2023/12/05 03:24:30;;;;;;;4.40;3.17;;;1.90;99.90;;;;;;4917768;29;20054;-65
2023/12/05 03:26:56;;;;;;;5.07;3.47;;;2.00;99.90;;;;;;4916800;29;20115;-65
2023/12/05 03:29:21;;;;;;;5.45;3.60;;;2.00;99.90;;;;;;4919329;29;20095;-65
2023/12/05 03:31:47;;;;;;;4.47;3.58;;;2.10;99.90;;;;;;4917098;29;20024;-65
2023/12/05 03:34:13;;;;;;;5.50;3.95;;;2.20;99.90;;;;;;4917116;29;20063;-64
2023/12/05 03:36:39;;;;;;;6.50;4.07;;;2.20;99.90;;;;;;4921285;29;20078;-65
2023/12/05 03:39:05;;;;;;;6.72;3.50;;;2.40;99.90;;;;;;4898440;29;20044;-64
2023/12/05 03:41:31;;;;;;;4.60;3.38;;;2.50;99.90;;;;;;4890947;29;20025;-64
2023/12/05 03:43:56;;;;;;;4.03;3.03;;;2.70;99.90;;;;;;4895849;29;20481;-64
2023/12/05 03:46:22;;;;;;;6.78;3.97;;;2.80;99.90;;;;;;4898081;29;20033;-64
2023/12/05 03:48:47;;;;;;;5.20;3.50;;;2.80;99.90;;;;;;4897855;29;20055;-65
2023/12/05 03:51:13;;;;;;;5.57;3.20;;;2.80;99.90;;;;;;4898503;29;20347;-65
2023/12/05 03:53:39;;;;;;;4.90;3.28;;;2.80;99.90;;;;;;4897781;29;20107;-64
2023/12/05 03:56:05;;;;;;;7.15;4.20;;;2.90;99.90;;;;;;4898011;29;20040;-64
2023/12/05 03:58:31;;;;;;;4.13;3.13;;;2.90;99.90;;;;;;4898005;29;20037;-64
2023/12/05 04:00:56;;;;;;;5.28;3.75;;;2.90;99.90;;;;;;4896662;29;20677;-64
2023/12/05 04:03:22;;;;;;;6.35;3.60;;;2.90;99.90;;;;;;4898446;29;20032;-64
2023/12/05 04:05:47;;;;;;;7.85;4.03;;;2.80;99.90;;;;;;4897679;29;20385;-65
2023/12/05 04:08:13;;;;;;;5.18;3.63;;;2.80;99.90;;;;;;4896404;29;20121;-65
2023/12/05 04:10:38;;;;;;;6.47;3.92;;;2.80;99.90;;;;;;4896255;29;20036;-66
2023/12/05 04:13:04;;;;;;;5.25;4.00;;;2.70;99.90;;;;;;4896609;29;20486;-64
2023/12/05 04:15:30;;;;;;;5.80;3.67;;;2.70;99.90;;;;;;4897322;29;20040;-65
2023/12/05 04:17:55;;;;;;;4.80;3.58;;;2.70;99.90;;;;;;4896244;29;20503;-65
2023/12/05 04:20:22;;;;;;;4.22;3.38;;;2.70;99.90;;;;;;4897773;29;20025;-63
2023/12/05 04:22:47;;;;;;;7.45;3.90;;;2.80;99.90;;;;;;4879277;29;20367;-65
2023/12/05 04:25:13;;;;;;;5.28;2.83;;;2.90;99.90;;;;;;4897749;29;20040;-64
2023/12/05 04:27:39;;;;;;;4.45;3.03;;;2.90;99.90;;;;;;4894940;29;20383;-66
2023/12/05 04:30:06;;;;;;;4.38;3.38;;;2.90;99.90;;;;;;4897553;29;20033;-65
2023/12/05 04:32:32;;;;;;;6.63;2.65;;;2.90;99.90;;;;;;4900281;29;20096;-65
2023/12/05 04:34:57;;;;;;;4.60;2.92;;;2.90;99.90;;;;;;4902824;29;20028;-65
2023/12/05 04:37:23;;;;;;;3.78;2.40;;;2.90;99.90;;;;;;4909059;29;20059;-65
2023/12/05 04:39:48;;;;;;;4.57;2.38;;;3.00;99.90;;;;;;4917259;29;20034;-65
2023/12/05 04:42:14;;;;;;;5.47;2.97;;;3.10;99.90;;;;;;4915596;29;20445;-65
2023/12/05 04:44:40;;;;;;;3.35;2.42;;;3.10;99.90;;;;;;4914555;29;20107;-65
2023/12/05 04:47:05;;;;;;;4.65;2.83;;;3.10;99.90;;;;;;4915964;29;20028;-65
2023/12/05 04:49:31;;;;;;;4.60;2.72;;;3.10;99.90;;;;;;4915773;29;20064;-64
2023/12/05 04:51:56;;;;;;;3.75;2.60;;;3.20;99.90;;;;;;4914594;29;20031;-65
2023/12/05 04:54:22;;;;;;;4.07;2.60;;;3.20;99.90;;;;;;4916042;29;20051;-65
2023/12/05 04:56:48;;;;;;;3.72;2.70;;;3.30;99.90;;;;;;4913977;29;20032;-65
2023/12/05 04:59:13;;;;;;;3.85;2.55;;;3.30;99.90;;;;;;4915997;29;20056;-65
2023/12/05 05:01:39;;;;;;;4.03;2.45;;;3.30;99.90;;;;;;4914625;29;20063;-65
2023/12/05 05:04:05;;;;;;;7.97;2.38;;;3.40;99.90;;;;;;4915947;29;20529;-65
2023/12/05 05:06:30;;;;;;;2.42;2.17;;;3.40;99.90;;;;;;4915267;29;20024;-65
2023/12/05 05:08:56;;;;;;;3.78;2.22;;;3.40;99.90;;;;;;4913303;29;20095;-65
2023/12/05 05:11:23;;;;;;;6.97;2.58;;;3.50;99.90;;;;;;4915108;29;20040;-65
2023/12/05 05:13:48;;;;;;;3.00;2.13;;;3.60;99.90;;;;;;4914828;29;20043;-65
2023/12/05 05:16:14;;;;;;;4.30;2.00;;;3.70;99.90;;;;;;4914985;29;20032;-65
2023/12/05 05:18:39;;;;;;;3.30;2.00;;;3.80;99.90;;;;;;4914378;29;20042;-65
2023/12/05 05:21:05;;;;;;;3.60;1.85;;;3.80;99.90;;;;;;4914695;29;20020;-65
2023/12/05 05:23:31;;;;;;;5.57;1.63;;;3.80;99.90;;;;;;4914206;29;20370;-65
2023/12/05 05:25:57;;;;;;;4.55;2.08;;;4.00;99.90;;;;;;4913705;29;20032;-65
2023/12/05 05:28:23;;;;;;;6.13;1.92;;;4.00;99.90;;;;;;4914735;29;20035;-65
2023/12/05 05:30:48;;;;;;;4.78;1.98;;;4.10;99.90;;;;;;4913036;29;20032;-65
2023/12/05 05:33:14;;;;;;;3.58;1.70;;;4.10;99.90;;;;;;4914172;29;20032;-65
2023/12/05 05:35:40;;;;;;;3.60;1.88;;;4.10;99.90;;;;;;4912627;29;20122;-65
2023/12/05 05:38:05;;;;;;;4.18;2.10;;;4.10;99.90;;;;;;4914586;29;20047;-66
2023/12/05 05:40:31;;;;;;;3.92;1.98;;;4.00;99.90;;;;;;4914315;29;20039;-65
2023/12/05 05:42:56;;;;;;;7.03;2.75;;;4.00;99.90;;;;;;4913140;29;20438;-64
2023/12/05 05:45:22;;;;;;;9.88;2.45;;;3.80;99.90;;;;;;4914467;29;20043;-65
2023/12/05 05:47:48;;;;;;;5.70;2.28;;;3.80;99.90;;;;;;4912843;29;20036;-65
2023/12/05 05:50:13;;;;;;;5.15;2.60;;;3.60;99.90;;;;;;4914803;29;20142;-65
2023/12/05 05:52:40;;;;;;;4.97;2.47;;;3.50;99.90;;;;;;4913638;29;20064;-66
2023/12/05 05:55:06;;;;;;;5.15;2.88;;;3.50;99.90;;;;;;4914264;29;20028;-65
2023/12/05 05:57:35;;;;;;;6.60;2.65;;;3.40;99.90;;;;;;4914567;29;20032;-64
2023/12/05 06:00:03;;;;;;;7.55;2.42;;;3.40;99.90;;;;;;4913751;29;20116;-64
2023/12/05 06:02:28;;;;;;;6.15;3.33;;;3.40;99.90;;;;;;4914067;29;20093;-64
2023/12/05 06:04:54;;;;;;;3.72;2.55;;;3.30;99.90;;;;;;4914072;29;20476;-70
2023/12/05 06:07:21;;;;;;;5.25;2.42;;;3.30;99.90;;;;;;4913392;29;20040;-65
2023/12/05 06:09:46;;;;;;;7.00;3.78;;;3.20;99.90;;;;;;4913932;29;20039;-65
2023/12/05 06:12:12;;;;;;;4.35;2.40;;;3.10;99.90;;;;;;4914300;29;20028;-65
2023/12/05 06:14:38;;;;;;;4.32;2.40;;;3.10;99.90;;;;;;4914077;29;20039;-65
2023/12/05 06:17:03;;;;;;;5.50;2.47;;;3.10;99.90;;;;;;4912597;29;20067;-65
2023/12/05 06:19:29;;;;;;;5.20;2.08;;;3.10;99.90;;;;;;4914791;29;20439;-67
2023/12/05 06:21:55;;;;;;;3.58;2.03;;;3.00;99.90;;;;;;4913047;29;20584;-63
2023/12/05 06:24:20;;;;;;;10.23;2.53;;;3.00;99.90;;;;;;4914694;29;20036;-64
2023/12/05 06:26:46;;;;;;;5.90;2.60;;;3.00;99.90;;;;;;4909563;29;20394;-63
2023/12/05 06:29:12;;;;;;;3.83;2.03;;;3.00;99.90;;;;;;4914021;29;20118;-64
2023/12/05 06:31:38;;;;;;;3.85;2.45;;;3.00;99.90;;;;;;4913757;29;20044;-64
2023/12/05 06:34:06;;;;;;;7.85;2.92;;;3.00;99.90;;;;;;4913507;29;20454;-64
2023/12/05 06:36:32;;;;;;;3.78;2.00;;;2.90;99.90;;;;;;4913172;29;20035;-63
2023/12/05 06:38:57;;;;;;;6.75;2.53;;;3.00;99.90;;;;;;4913503;29;20056;-64
2023/12/05 06:41:23;;;;;;;3.83;2.05;;;3.00;99.90;;;;;;4913809;29;20036;-64
2023/12/05 06:43:48;;;;;;;7.85;2.58;;;2.90;99.90;;;;;;4911692;29;20028;-64
2023/12/05 06:46:14;;;;;;;6.03;2.50;;;2.90;99.90;;;;;;4913535;29;20051;-63
2023/12/05 06:48:39;;;;;;;3.47;2.20;;;2.90;99.90;;;;;;4912221;29;20083;-64
2023/12/05 06:51:05;;;;;;;4.55;1.75;;;3.00;99.90;;;;;;4913176;29;20119;-63
2023/12/05 06:53:31;;;;;;;5.30;1.60;;;3.10;99.90;;;;;;4913790;29;20039;-63
2023/12/05 06:55:56;;;;;;;3.90;2.08;;;3.10;99.90;;;;;;4912803;29;20064;-63
2023/12/05 06:58:22;;;;;;;6.38;2.20;;;3.10;99.90;;;;;;4914069;29;20037;-63
2023/12/05 07:00:48;;;;;;;5.15;2.42;;;3.10;99.90;;;;;;4895544;29;20462;-63
2023/12/05 07:03:14;;;;;;;5.65;2.55;;;3.10;99.90;;;;;;4913870;29;20032;-63
2023/12/05 07:05:40;;;;;;;4.43;2.30;;;3.10;99.90;;;;;;4912878;29;20039;-66
2023/12/05 07:08:06;;;;;;;3.22;2.20;;;3.20;99.90;;;;;;4913063;29;20067;-65
2023/12/05 07:10:32;;;;;;;5.18;2.17;;;3.20;99.90;;;;;;4914010;29;20043;-63
2023/12/05 07:12:58;;;;;;;5.00;1.95;;;3.20;99.90;;;;;;4912336;29;20036;-64
2023/12/05 07:15:24;;;;;;;9.07;1.92;;;3.20;99.90;;;;;;4908661;29;20511;-64
2023/12/05 07:17:49;;;;;;;8.00;2.10;;;3.20;99.90;;;;;;4913307;29;20043;-64
2023/12/05 07:20:15;;;;;;;4.32;1.60;;;3.20;99.90;;;;;;4909937;29;20032;-64
2023/12/05 07:22:43;;;;;;;7.43;1.90;;;3.20;99.90;;;;;;4910625;29;20087;-64
2023/12/05 07:25:08;;;;;;;5.40;1.60;;;3.30;99.90;;;;;;4913693;29;20062;-64
2023/12/05 07:27:35;;;;;;;3.67;1.48;;;3.40;99.90;;;;;;4912727;29;20083;-65
2023/12/05 07:30:01;;;;;;;3.47;1.58;;;3.50;99.90;;;;;;4912835;29;20496;-64
2023/12/05 07:32:27;;;;;;;4.35;1.40;;;3.60;99.90;;;;;;4912918;29;20029;-64
2023/12/05 07:34:53;;;;;;;2.70;1.30;;;3.60;99.90;;;;;;4912712;29;20028;-64
2023/12/05 07:37:18;;;;;;;2.63;1.20;;;3.70;99.90;;;;;;4911252;29;20111;-64
2023/12/05 07:39:44;;;;;;;6.07;1.40;;;3.70;99.90;;;;;;4912567;29;20035;-64
2023/12/05 07:42:09;;;;;;;3.88;1.45;;;3.70;99.90;;;;;;4912518;29;20441;-64
2023/12/05 07:44:35;;;;;;;5.68;1.60;;;3.80;99.90;;;;;;4912630;29;20028;-64
2023/12/05 07:47:01;;;;;;;3.80;1.25;;;3.80;99.90;;;;;;4912431;29;20024;-64
2023/12/05 07:49:27;;;;;;;1.67;1.20;;;3.80;99.90;;;;;;4912999;29;20036;-64
2023/12/05 07:51:52;;;;;;;3.72;1.33;;;3.80;99.90;;;;;;4912278;29;20028;-65
2023/12/05 07:54:18;;;;;;;4.57;1.80;;;3.80;99.90;;;;;;4913076;29;20028;-65
2023/12/05 07:56:43;;;;;;;2.42;1.35;;;3.90;99.90;;;;;;4911860;29;20044;-66
2023/12/05 07:59:09;;;;;;;3.63;1.15;;;3.80;99.90;;;;;;4912744;29;20043;-65
2023/12/05 08:01:35;;;;;;;2.72;1.30;;;3.80;99.90;;;;;;4915425;29;20043;-65
2023/12/05 08:04:02;;;;;;;2.83;1.10;;;3.70;99.90;;;;;;4915922;29;20028;-65
2023/12/05 08:06:28;;;;;;;14.18;2.72;;;3.70;99.90;;;;;;4916126;29;20454;-65
2023/12/05 08:08:53;;;;;;;4.93;1.35;;;3.70;99.90;;;;;;4915091;29;20036;-65
2023/12/05 08:11:20;;;;;;;1.73;0.85;;;3.80;99.90;;;;;;4915992;29;20028;-64
2023/12/05 08:13:47;;;;;;;2.42;1.33;;;3.90;99.90;;;;;;4912965;29;20092;-65
2023/12/05 08:16:13;;;;;;;4.45;1.55;;;3.90;99.90;;;;;;4915693;29;20063;-64
2023/12/05 08:18:39;;;;;;;4.43;1.38;;;3.90;99.90;;;;;;4915322;29;20068;-65
2023/12/05 08:21:05;;;;;;;3.05;1.10;;;4.00;99.90;;;;;;4915820;29;20067;-64
2023/12/05 08:23:31;;;;;;;6.07;1.30;;;4.20;99.90;;;;;;4915760;29;20462;-63
2023/12/05 08:25:56;;;;;;;3.08;1.33;;;4.30;99.90;;;;;;4914737;29;20072;-64
2023/12/05 08:28:22;;;;;;;6.50;1.13;;;4.40;99.90;;;;;;4915890;29;20032;-65
2023/12/05 08:30:48;;;;;;;4.07;1.52;;;4.60;99.90;;;;;;4914388;29;20446;-65
2023/12/05 08:33:14;;;;;;;3.67;1.20;;;4.70;99.90;;;;;;4915515;29;20064;-65
2023/12/05 08:35:39;;;;;;;4.22;1.13;;;4.70;99.90;;;;;;4914489;29;20478;-64
2023/12/05 08:38:05;;;;;;;6.75;1.38;;;4.80;99.90;;;;;;4915113;29;20124;-63
2023/12/05 08:40:30;;;;;;;5.47;1.10;;;4.80;99.90;;;;;;4898936;29;20490;-64
2023/12/05 08:42:56;;;;;;;3.30;0.90;;;4.90;99.90;;;;;;4913945;29;20112;-65
2023/12/05 08:45:22;;;;;;;2.83;1.20;;;5.00;99.90;;;;;;4915656;29;20028;-64
2023/12/05 08:47:52;;;;;;;3.67;1.40;;;5.10;99.90;;;;;;4914012;29;20071;-64
2023/12/05 08:50:18;;;;;;;3.15;1.10;;;5.10;99.90;;;;;;4915253;29;20591;-65
2023/12/05 08:52:44;;;;;;;4.43;1.05;;;5.10;99.90;;;;;;4914268;29;20036;-64
2023/12/05 08:55:10;;;;;;;3.28;1.15;;;5.20;99.90;;;;;;4914849;29;20161;-63
2023/12/05 08:57:36;;;;;;;1.75;0.90;;;5.20;99.90;;;;;;4914676;29;20044;-65
2023/12/05 09:00:04;;;;;;;3.40;1.08;;;5.20;99.90;;;;;;4915370;29;20032;-64
2023/12/05 09:02:30;;;;;;;3.75;1.10;;;5.30;99.90;;;;;;4914898;29;20381;-64
2023/12/05 09:04:56;;;;;;;3.40;1.00;;;5.30;99.90;;;;;;4913760;29;20028;-65
2023/12/05 09:07:22;;;;;;;4.88;0.90;;;5.40;99.90;;;;;;4897757;29;20102;-64
2023/12/05 09:09:48;;;;;;;6.22;1.13;;;5.40;99.90;;;;;;4914182;29;20036;-65
2023/12/05 09:12:14;;;;;;;7.93;1.20;;;5.40;99.90;;;;;;4913936;29;20036;-64
2023/12/05 09:14:40;;;;;;;2.55;1.50;;;5.50;99.90;;;;;;4914049;29;20036;-65
2023/12/05 09:17:09;;;;;;;3.35;1.02;;;5.60;99.90;;;;;;4914073;29;20043;-65
2023/12/05 09:19:35;;;;;;;2.15;1.08;;;5.70;99.90;;;;;;4914835;29;20044;-65
2023/12/05 09:22:00;;;;;;;3.28;1.35;;;5.60;99.90;;;;;;4913481;29;20032;-65
2023/12/05 09:24:26;;;;;;;2.60;0.93;;;5.70;99.90;;;;;;4914708;29;20034;-65
2023/12/05 09:26:52;;;;;;;1.45;0.90;;;5.70;99.90;;;;;;4912770;29;20050;-65
2023/12/05 09:29:18;;;;;;;2.45;0.90;;;5.80;99.90;;;;;;4914946;29;20116;-65
2023/12/05 09:31:44;;;;;;;2.92;0.77;;;5.90;99.90;;;;;;4913036;29;20051;-65
2023/12/05 09:34:10;;;;;;;7.00;1.10;;;5.90;99.90;;;;;;4908472;29;20131;-64
2023/12/05 09:36:35;;;;;;;7.22;1.10;;;6.00;99.90;;;;;;4910993;29;20032;-65
2023/12/05 09:39:02;;;;;;;2.15;0.95;;;6.00;99.90;;;;;;4894872;29;20127;-64
2023/12/05 09:41:28;;;;;;;5.05;1.10;;;6.00;99.90;;;;;;4907825;29;20033;-65
2023/12/05 09:43:54;;;;;;;2.30;0.80;;;6.10;99.90;;;;;;4902757;29;20450;-65
2023/12/05 09:46:25;;;;;;;1.70;0.90;;;6.10;99.90;;;;;;4914133;29;20115;-65
2023/12/05 09:48:57;;;;;;;1.88;0.90;;;6.10;99.90;;;;;;4895551;29;20091;-65
2023/12/05 09:51:24;;;;;;;3.67;1.10;;;6.10;99.90;;;;;;4912135;29;20075;-65
2023/12/05 09:53:53;;;;;;;3.25;1.02;;;6.10;99.90;;;;;;4913497;29;20067;-64
2023/12/05 09:56:20;;;;;;;3.63;0.60;;;6.20;99.90;;;;;;4913036;29;20103;-65
2023/12/05 09:58:45;;;;;;;4.53;1.02;;;6.30;99.90;;;;;;4913524;29;20522;-65
2023/12/05 10:01:15;;;;;;;2.30;0.85;;;6.30;99.90;;;;;;4912202;29;20421;-65
2023/12/05 10:03:42;;;;;;;3.88;1.20;;;6.30;99.90;;;;;;4913101;29;20037;-66
2023/12/05 10:06:10;;;;;;;2.60;0.90;;;6.40;99.90;;;;;;4915242;29;20042;-65
2023/12/05 10:08:37;;;;;;;3.40;1.00;;;6.40;99.90;;;;;;4915534;29;20036;-64
2023/12/05 10:11:04;;;;;;;2.80;0.90;;;6.50;99.90;;;;;;4913513;29;20115;-64
2023/12/05 10:13:30;;;;;;;6.28;0.80;;;6.60;99.90;;;;;;4896714;29;20039;-64
2023/12/05 10:15:58;;;;;;;3.22;0.90;;;6.60;99.90;;;;;;4912872;29;20819;-64
2023/12/05 10:18:25;;;;;;;2.15;0.80;;;6.60;99.90;;;;;;4913801;29;20393;-64
2023/12/05 10:20:51;;;;;;;1.98;0.90;;;6.70;99.90;;;;;;4912549;29;20084;-64
2023/12/05 10:23:18;;;;;;;3.60;1.10;;;6.70;99.90;;;;;;4914220;29;20028;-64
2023/12/05 10:25:44;;;;;;;3.30;1.10;;;6.70;99.90;;;;;;4912835;29;20363;-65
2023/12/05 10:28:10;;;;;;;4.00;0.93;;;6.70;99.90;;;;;;4914384;29;20032;-65
2023/12/05 10:30:39;;;;;;;4.45;0.93;;;6.80;99.90;;;;;;4913504;29;20036;-64
2023/12/05 10:33:16;;;;;;;2.50;0.70;;;6.90;99.90;;;;;;4914311;29;20028;-64
2023/12/05 10:35:43;;;;;;;5.40;0.98;;;7.00;99.90;;;;;;4912392;29;20160;-64
2023/12/05 10:38:10;;;;;;;2.28;0.93;;;7.10;99.90;;;;;;4909987;29;20107;-64
2023/12/05 10:40:56;;;;;;;2.40;0.77;;;7.20;99.90;;;;;;4909738;29;20047;-64
2023/12/05 10:43:24;;;;;;;2.70;0.90;;;7.30;99.90;;;;;;4901096;29;20060;-64
2023/12/05 10:45:50;;;;;;;2.47;1.13;;;7.40;99.90;;;;;;4912902;29;20103;-65
2023/12/05 10:48:16;;;;;;;2.95;1.52;;;7.40;99.90;;;;;;4913539;29;20055;-64
2023/12/05 10:50:47;;;;;;;2.53;0.70;;;7.50;99.90;;;;;;4912385;29;20024;-65
2023/12/05 10:53:14;;;;;;;2.10;0.80;;;7.50;99.90;;;;;;4914123;29;20082;-64
2023/12/05 10:55:41;;;;;;;1.80;1.08;;;7.60;99.90;;;;;;4912925;29;20382;-65
2023/12/05 10:58:08;;;;;;;2.47;0.90;;;7.50;99.90;;;;;;4913089;29;20650;-65
2023/12/05 11:00:35;;;;;;;4.72;1.05;;;7.50;99.90;;;;;;4913796;29;20024;-64
2023/12/05 11:03:03;;;;;;;4.00;0.90;;;7.50;99.90;;;;;;4913175;29;20028;-64
2023/12/05 11:05:30;;;;;;;2.30;1.00;;;7.60;99.90;;;;;;4913558;29;20534;-64
2023/12/05 11:07:57;;;;;;;2.00;0.65;;;7.60;99.90;;;;;;4912529;29;20078;-64
2023/12/05 11:10:23;;;;;;;1.10;0.80;;;7.50;99.90;;;;;;4913904;29;20024;-64
2023/12/05 11:12:50;;;;;;;2.78;0.73;;;7.40;99.90;;;;;;4912172;29;20489;-64
2023/12/05 11:15:20;;;;;;;2.58;1.08;;;7.40;99.90;;;;;;4913679;29;20036;-64
2023/12/05 11:17:50;;;;;;;2.75;0.63;;;7.40;99.90;;;;;;4912579;29;20040;-64
2023/12/05 11:20:36;;;;;;;1.85;0.80;;;7.40;99.90;;;;;;4913320;29;20043;-64
2023/12/05 11:23:23;;;;;;;1.90;0.80;;;7.30;99.90;;;;;;4896136;29;20046;-64
2023/12/05 11:26:07;;;;;;;9.75;1.15;;;7.30;99.90;;;;;;4912492;29;20036;-65
2023/12/05 11:28:58;;;;;;;1.00;0.70;;;7.20;99.90;;;;;;4913655;29;20040;-64
2023/12/05 11:31:42;;;;;;;2.58;0.50;;;7.20;99.90;;;;;;4900217;29;20060;-65
2023/12/05 11:34:41;;;;;;;0.93;0.60;;;7.30;99.90;;;;;;4917473;29;20367;-64
2023/12/05 11:37:29;;;;;;;1.35;0.82;;;7.20;99.90;;;;;;4911835;29;20059;-65
2023/12/05 11:39:55;;;;;;;1.88;0.88;;;7.20;99.90;;;;;;4917497;29;20068;-65
2023/12/05 11:42:21;;;;;;;1.65;1.15;;;7.30;99.90;;;;;;4917881;29;20055;-65
2023/12/05 11:44:47;;;;;;;2.28;0.75;;;7.30;99.90;;;;;;4916449;29;20027;-65
2023/12/05 11:47:28;;;;;;;1.88;0.70;;;7.40;99.90;;;;;;4917083;29;20522;-65
2023/12/05 11:49:58;;;;;;;2.10;0.85;;;7.40;99.90;;;;;;4918041;29;20082;-65
2023/12/05 11:52:27;;;;;;;1.35;0.60;;;7.50;99.90;;;;;;4917324;29;20047;-65
2023/12/05 11:54:55;;;;;;;3.08;0.80;;;7.40;99.90;;;;;;4915784;29;20028;-65
2023/12/05 11:57:23;;;;;;;1.13;0.50;;;7.30;99.90;;;;;;4916400;29;20473;-64
2023/12/05 11:59:52;;;;;;;1.25;0.93;;;7.30;99.90;;;;;;4916162;29;20054;-65
2023/12/05 12:02:39;;;;;;;2.78;0.88;;;7.30;99.90;;;;;;4916616;29;20127;-64
2023/12/05 12:05:06;;;;;;;1.52;0.70;;;7.40;99.90;;;;;;4901224;29;20059;-64
2023/12/05 12:07:41;;;;;;;2.50;0.60;;;7.40;99.90;;;;;;4915913;29;20040;-65
2023/12/05 12:10:07;;;;;;;2.25;0.57;;;7.40;99.90;;;;;;4917064;29;20144;-64
2023/12/05 12:12:32;;;;;;;4.80;0.82;;;7.40;99.90;;;;;;4915090;29;20032;-65
2023/12/05 12:14:58;;;;;;;1.73;0.55;;;7.40;99.90;;;;;;4915840;29;20036;-64
2023/12/05 12:17:23;;;;;;;2.08;0.60;;;7.50;99.90;;;;;;4916095;29;20043;-64
2023/12/05 12:19:49;;;;;;;2.92;0.80;;;7.50;99.90;;;;;;4915781;29;20087;-65
2023/12/05 12:22:15;;;;;;;2.35;0.80;;;7.50;99.90;;;;;;4915871;29;20115;-64
2023/12/05 12:24:40;;;;;;;1.17;0.35;;;7.50;99.90;;;;;;4915196;29;20036;-64
2023/12/05 12:27:07;;;;;;;1.30;0.80;;;7.50;99.90;;;;;;4915825;29;20024;-65
2023/12/05 12:29:34;;;;;;;1.85;0.70;;;7.50;99.90;;;;;;4916086;29;20059;-65
2023/12/05 12:32:10;;;;;;;2.50;0.90;;;7.50;99.90;;;;;;4915295;29;20032;-64
2023/12/05 12:34:37;;;;;;;1.85;0.73;;;7.50;99.90;;;;;;4915768;29;20486;-64
2023/12/05 12:37:05;;;;;;;2.05;0.80;;;7.50;99.90;;;;;;4914652;29;20055;-63
2023/12/05 12:39:34;;;;;;;3.35;0.85;;;7.50;99.90;;;;;;4922771;29;20482;-63
2023/12/05 12:42:03;;;;;;;4.18;1.10;;;7.60;99.90;;;;;;4923527;29;20119;-65
2023/12/05 12:44:30;;;;;;;3.28;1.58;;;7.60;99.90;;;;;;4915682;29;20497;-63
2023/12/05 12:46:56;;;;;;;3.33;0.75;;;7.60;99.90;;;;;;4912293;29;20187;-65
2023/12/05 12:49:22;;;;;;;1.88;0.60;;;7.70;99.90;;;;;;4911970;29;20381;-64
2023/12/05 12:51:49;;;;;;;2.90;1.00;;;7.70;99.90;;;;;;4903566;29;20111;-65
2023/12/05 12:54:16;;;;;;;2.63;0.90;;;7.70;99.90;;;;;;4916140;29;20028;-65